sensor_id;sensor_type;location;lat;lon;timestamp;P1;durP1;ratioP1;P2;durP2;ratioP2
8819;SDS011;4446;50.876;4.736;2023-04-06T00:00:33;20.83;;;11.98;;
8819;SDS011;4446;50.876;4.736;2023-04-06T00:03:01;21.00;;;12.43;;
8819;SDS011;4446;50.876;4.736;2023-04-06T00:05:28;18.98;;;11.38;;
8819;SDS011;4446;50.876;4.736;2023-04-06T00:07:56;19.38;;;11.60;;
8819;SDS011;4446;50.876;4.736;2023-04-06T00:10:24;17.88;;;11.25;;
8819;SDS011;4446;50.876;4.736;2023-04-06T00:12:51;19.80;;;11.80;;
8819;SDS011;4446;50.876;4.736;2023-04-06T00:15:18;21.00;;;11.98;;
8819;SDS011;4446;50.876;4.736;2023-04-06T00:17:45;17.83;;;11.23;;
8819;SDS011;4446;50.876;4.736;2023-04-06T00:20:14;17.45;;;11.40;;
8819;SDS011;4446;50.876;4.736;2023-04-06T00:22:41;18.13;;;11.43;;
8819;SDS011;4446;50.876;4.736;2023-04-06T00:25:08;17.98;;;11.27;;
8819;SDS011;4446;50.876;4.736;2023-04-06T00:27:36;18.73;;;11.73;;
8819;SDS011;4446;50.876;4.736;2023-04-06T00:30:03;22.23;;;12.93;;
8819;SDS011;4446;50.876;4.736;2023-04-06T00:32:31;17.02;;;10.63;;
8819;SDS011;4446;50.876;4.736;2023-04-06T00:34:58;19.00;;;11.18;;
8819;SDS011;4446;50.876;4.736;2023-04-06T00:37:26;18.02;;;10.88;;
8819;SDS011;4446;50.876;4.736;2023-04-06T00:39:53;19.90;;;11.52;;
8819;SDS011;4446;50.876;4.736;2023-04-06T00:42:21;19.42;;;11.60;;
8819;SDS011;4446;50.876;4.736;2023-04-06T00:44:51;20.25;;;11.65;;
8819;SDS011;4446;50.876;4.736;2023-04-06T00:47:19;19.80;;;11.38;;
8819;SDS011;4446;50.876;4.736;2023-04-06T00:49:46;19.90;;;11.93;;
8819;SDS011;4446;50.876;4.736;2023-04-06T00:52:13;19.73;;;11.02;;
8819;SDS011;4446;50.876;4.736;2023-04-06T00:54:42;16.65;;;11.02;;
8819;SDS011;4446;50.876;4.736;2023-04-06T00:57:10;16.17;;;10.80;;
8819;SDS011;4446;50.876;4.736;2023-04-06T00:59:37;17.25;;;10.45;;
8819;SDS011;4446;50.876;4.736;2023-04-06T01:02:05;17.35;;;10.90;;
8819;SDS011;4446;50.876;4.736;2023-04-06T01:04:32;17.98;;;11.55;;
8819;SDS011;4446;50.876;4.736;2023-04-06T01:07:00;16.33;;;10.68;;
8819;SDS011;4446;50.876;4.736;2023-04-06T01:09:27;17.98;;;11.52;;
8819;SDS011;4446;50.876;4.736;2023-04-06T01:11:56;19.10;;;11.32;;
8819;SDS011;4446;50.876;4.736;2023-04-06T01:14:23;17.65;;;10.80;;
8819;SDS011;4446;50.876;4.736;2023-04-06T01:16:51;19.02;;;11.23;;
8819;SDS011;4446;50.876;4.736;2023-04-06T01:19:18;18.33;;;11.32;;
8819;SDS011;4446;50.876;4.736;2023-04-06T01:21:46;17.33;;;10.77;;
8819;SDS011;4446;50.876;4.736;2023-04-06T01:24:15;15.95;;;10.18;;
8819;SDS011;4446;50.876;4.736;2023-04-06T01:26:42;17.55;;;10.48;;
8819;SDS011;4446;50.876;4.736;2023-04-06T01:29:10;17.75;;;10.30;;
8819;SDS011;4446;50.876;4.736;2023-04-06T01:31:37;15.73;;;10.52;;
8819;SDS011;4446;50.876;4.736;2023-04-06T01:34:05;16.65;;;9.90;;
8819;SDS011;4446;50.876;4.736;2023-04-06T01:36:32;15.40;;;9.00;;
8819;SDS011;4446;50.876;4.736;2023-04-06T01:38:59;13.77;;;9.57;;
8819;SDS011;4446;50.876;4.736;2023-04-06T01:41:28;15.05;;;9.32;;
8819;SDS011;4446;50.876;4.736;2023-04-06T01:43:55;16.38;;;10.40;;
8819;SDS011;4446;50.876;4.736;2023-04-06T01:46:22;14.23;;;9.40;;
8819;SDS011;4446;50.876;4.736;2023-04-06T01:48:49;14.98;;;9.63;;
8819;SDS011;4446;50.876;4.736;2023-04-06T01:51:16;15.68;;;10.18;;
8819;SDS011;4446;50.876;4.736;2023-04-06T01:53:43;14.43;;;8.88;;
8819;SDS011;4446;50.876;4.736;2023-04-06T01:56:10;14.95;;;9.57;;
8819;SDS011;4446;50.876;4.736;2023-04-06T01:58:38;13.82;;;9.13;;
8819;SDS011;4446;50.876;4.736;2023-04-06T02:01:05;14.38;;;9.75;;
8819;SDS011;4446;50.876;4.736;2023-04-06T02:03:32;17.08;;;10.52;;
8819;SDS011;4446;50.876;4.736;2023-04-06T02:05:59;15.85;;;9.80;;
8819;SDS011;4446;50.876;4.736;2023-04-06T02:08:26;19.95;;;10.77;;
8819;SDS011;4446;50.876;4.736;2023-04-06T02:10:53;15.80;;;9.93;;
8819;SDS011;4446;50.876;4.736;2023-04-06T02:13:20;14.63;;;9.95;;
8819;SDS011;4446;50.876;4.736;2023-04-06T02:15:49;14.90;;;9.98;;
8819;SDS011;4446;50.876;4.736;2023-04-06T02:18:16;17.80;;;10.60;;
8819;SDS011;4446;50.876;4.736;2023-04-06T02:20:43;16.58;;;9.90;;
8819;SDS011;4446;50.876;4.736;2023-04-06T02:23:10;14.63;;;9.60;;
8819;SDS011;4446;50.876;4.736;2023-04-06T02:25:37;15.10;;;9.80;;
8819;SDS011;4446;50.876;4.736;2023-04-06T02:28:05;16.10;;;9.98;;
8819;SDS011;4446;50.876;4.736;2023-04-06T02:30:32;15.82;;;10.57;;
8819;SDS011;4446;50.876;4.736;2023-04-06T02:33:00;15.52;;;9.75;;
8819;SDS011;4446;50.876;4.736;2023-04-06T02:35:28;14.82;;;9.93;;
8819;SDS011;4446;50.876;4.736;2023-04-06T02:37:56;14.60;;;10.25;;
8819;SDS011;4446;50.876;4.736;2023-04-06T02:40:23;14.30;;;9.48;;
8819;SDS011;4446;50.876;4.736;2023-04-06T02:42:50;13.60;;;9.38;;
8819;SDS011;4446;50.876;4.736;2023-04-06T02:45:17;14.60;;;10.07;;
8819;SDS011;4446;50.876;4.736;2023-04-06T02:47:45;16.27;;;9.85;;
8819;SDS011;4446;50.876;4.736;2023-04-06T02:50:13;16.10;;;9.43;;
8819;SDS011;4446;50.876;4.736;2023-04-06T02:52:41;17.10;;;10.20;;
8819;SDS011;4446;50.876;4.736;2023-04-06T02:55:08;14.98;;;10.25;;
8819;SDS011;4446;50.876;4.736;2023-04-06T02:57:35;16.10;;;10.45;;
8819;SDS011;4446;50.876;4.736;2023-04-06T03:00:02;16.95;;;9.95;;
8819;SDS011;4446;50.876;4.736;2023-04-06T03:02:30;14.70;;;9.88;;
8819;SDS011;4446;50.876;4.736;2023-04-06T03:04:57;14.57;;;9.73;;
8819;SDS011;4446;50.876;4.736;2023-04-06T03:07:25;14.50;;;9.68;;
8819;SDS011;4446;50.876;4.736;2023-04-06T03:09:52;13.63;;;10.10;;
8819;SDS011;4446;50.876;4.736;2023-04-06T03:12:19;15.82;;;10.38;;
8819;SDS011;4446;50.876;4.736;2023-04-06T03:14:46;16.27;;;10.23;;
8819;SDS011;4446;50.876;4.736;2023-04-06T03:17:13;14.45;;;9.85;;
8819;SDS011;4446;50.876;4.736;2023-04-06T03:19:40;15.95;;;10.52;;
8819;SDS011;4446;50.876;4.736;2023-04-06T03:22:07;18.17;;;11.25;;
8819;SDS011;4446;50.876;4.736;2023-04-06T03:24:36;18.15;;;11.43;;
8819;SDS011;4446;50.876;4.736;2023-04-06T03:27:03;17.27;;;10.63;;
8819;SDS011;4446;50.876;4.736;2023-04-06T03:29:31;16.00;;;10.50;;
8819;SDS011;4446;50.876;4.736;2023-04-06T03:31:58;15.80;;;10.40;;
8819;SDS011;4446;50.876;4.736;2023-04-06T03:34:25;15.25;;;10.73;;
8819;SDS011;4446;50.876;4.736;2023-04-06T03:36:52;16.95;;;9.55;;
8819;SDS011;4446;50.876;4.736;2023-04-06T03:39:19;15.05;;;9.82;;
8819;SDS011;4446;50.876;4.736;2023-04-06T03:41:48;14.55;;;10.32;;
8819;SDS011;4446;50.876;4.736;2023-04-06T03:44:15;14.25;;;10.00;;
8819;SDS011;4446;50.876;4.736;2023-04-06T03:46:42;16.42;;;10.65;;
8819;SDS011;4446;50.876;4.736;2023-04-06T03:49:09;15.82;;;10.00;;
8819;SDS011;4446;50.876;4.736;2023-04-06T03:51:36;15.38;;;10.25;;
8819;SDS011;4446;50.876;4.736;2023-04-06T03:54:03;14.45;;;9.82;;
8819;SDS011;4446;50.876;4.736;2023-04-06T03:56:31;13.10;;;9.35;;
8819;SDS011;4446;50.876;4.736;2023-04-06T03:58:59;16.45;;;10.68;;
8819;SDS011;4446;50.876;4.736;2023-04-06T04:01:27;15.55;;;10.15;;
8819;SDS011;4446;50.876;4.736;2023-04-06T04:03:54;14.25;;;9.95;;
8819;SDS011;4446;50.876;4.736;2023-04-06T04:06:21;14.55;;;9.80;;
8819;SDS011;4446;50.876;4.736;2023-04-06T04:08:48;14.77;;;10.38;;
8819;SDS011;4446;50.876;4.736;2023-04-06T04:11:15;16.33;;;10.52;;
8819;SDS011;4446;50.876;4.736;2023-04-06T04:13:42;15.18;;;10.18;;
8819;SDS011;4446;50.876;4.736;2023-04-06T04:16:10;14.40;;;9.88;;
8819;SDS011;4446;50.876;4.736;2023-04-06T04:18:37;14.55;;;10.30;;
8819;SDS011;4446;50.876;4.736;2023-04-06T04:21:04;15.68;;;9.75;;
8819;SDS011;4446;50.876;4.736;2023-04-06T04:23:31;14.80;;;10.43;;
8819;SDS011;4446;50.876;4.736;2023-04-06T04:25:58;15.20;;;10.20;;
8819;SDS011;4446;50.876;4.736;2023-04-06T04:28:25;15.18;;;10.30;;
8819;SDS011;4446;50.876;4.736;2023-04-06T04:30:52;17.75;;;11.07;;
8819;SDS011;4446;50.876;4.736;2023-04-06T04:33:20;16.73;;;10.48;;
8819;SDS011;4446;50.876;4.736;2023-04-06T04:35:47;15.02;;;10.07;;
8819;SDS011;4446;50.876;4.736;2023-04-06T04:38:14;16.52;;;10.30;;
8819;SDS011;4446;50.876;4.736;2023-04-06T04:40:41;15.63;;;10.75;;
8819;SDS011;4446;50.876;4.736;2023-04-06T04:43:08;18.27;;;11.57;;
8819;SDS011;4446;50.876;4.736;2023-04-06T04:45:35;17.58;;;10.85;;
8819;SDS011;4446;50.876;4.736;2023-04-06T04:48:03;15.75;;;10.13;;
8819;SDS011;4446;50.876;4.736;2023-04-06T04:50:32;16.75;;;11.20;;
8819;SDS011;4446;50.876;4.736;2023-04-06T04:52:59;14.32;;;9.95;;
8819;SDS011;4446;50.876;4.736;2023-04-06T04:55:26;17.85;;;10.90;;
8819;SDS011;4446;50.876;4.736;2023-04-06T04:57:54;14.77;;;10.13;;
8819;SDS011;4446;50.876;4.736;2023-04-06T05:00:21;16.27;;;10.18;;
8819;SDS011;4446;50.876;4.736;2023-04-06T05:02:48;15.88;;;10.35;;
8819;SDS011;4446;50.876;4.736;2023-04-06T05:05:15;15.02;;;10.32;;
8819;SDS011;4446;50.876;4.736;2023-04-06T05:07:44;17.30;;;11.18;;
8819;SDS011;4446;50.876;4.736;2023-04-06T05:10:11;17.80;;;11.55;;
8819;SDS011;4446;50.876;4.736;2023-04-06T05:12:38;18.13;;;10.68;;
8819;SDS011;4446;50.876;4.736;2023-04-06T05:15:06;17.63;;;10.63;;
8819;SDS011;4446;50.876;4.736;2023-04-06T05:17:34;17.30;;;10.73;;
8819;SDS011;4446;50.876;4.736;2023-04-06T05:20:01;17.27;;;10.52;;
8819;SDS011;4446;50.876;4.736;2023-04-06T05:22:28;15.07;;;10.00;;
8819;SDS011;4446;50.876;4.736;2023-04-06T05:24:56;18.17;;;10.73;;
8819;SDS011;4446;50.876;4.736;2023-04-06T05:27:23;15.98;;;10.55;;
8819;SDS011;4446;50.876;4.736;2023-04-06T05:29:50;15.90;;;10.35;;
8819;SDS011;4446;50.876;4.736;2023-04-06T05:32:17;15.95;;;10.35;;
8819;SDS011;4446;50.876;4.736;2023-04-06T05:34:47;15.85;;;10.02;;
8819;SDS011;4446;50.876;4.736;2023-04-06T05:37:14;14.85;;;10.45;;
8819;SDS011;4446;50.876;4.736;2023-04-06T05:39:42;14.95;;;10.40;;
8819;SDS011;4446;50.876;4.736;2023-04-06T05:42:10;18.50;;;10.73;;
8819;SDS011;4446;50.876;4.736;2023-04-06T05:44:37;15.60;;;10.10;;
8819;SDS011;4446;50.876;4.736;2023-04-06T05:47:04;17.27;;;10.50;;
8819;SDS011;4446;50.876;4.736;2023-04-06T05:49:31;17.88;;;11.10;;
8819;SDS011;4446;50.876;4.736;2023-04-06T05:51:59;15.57;;;10.77;;
8819;SDS011;4446;50.876;4.736;2023-04-06T05:54:26;15.98;;;9.80;;
8819;SDS011;4446;50.876;4.736;2023-04-06T05:56:53;13.18;;;9.57;;
8819;SDS011;4446;50.876;4.736;2023-04-06T05:59:22;17.55;;;11.00;;
8819;SDS011;4446;50.876;4.736;2023-04-06T06:01:49;16.40;;;10.48;;
8819;SDS011;4446;50.876;4.736;2023-04-06T06:04:16;14.57;;;9.57;;
8819;SDS011;4446;50.876;4.736;2023-04-06T06:06:43;16.65;;;10.55;;
8819;SDS011;4446;50.876;4.736;2023-04-06T06:09:11;15.65;;;10.45;;
8819;SDS011;4446;50.876;4.736;2023-04-06T06:11:38;15.30;;;9.63;;
8819;SDS011;4446;50.876;4.736;2023-04-06T06:14:06;17.15;;;10.10;;
8819;SDS011;4446;50.876;4.736;2023-04-06T06:16:34;18.50;;;11.18;;
8819;SDS011;4446;50.876;4.736;2023-04-06T06:19:01;16.70;;;10.80;;
8819;SDS011;4446;50.876;4.736;2023-04-06T06:21:28;19.67;;;11.30;;
8819;SDS011;4446;50.876;4.736;2023-04-06T06:23:55;16.40;;;10.38;;
8819;SDS011;4446;50.876;4.736;2023-04-06T06:26:22;15.40;;;10.45;;
8819;SDS011;4446;50.876;4.736;2023-04-06T06:28:50;15.07;;;10.40;;
8819;SDS011;4446;50.876;4.736;2023-04-06T06:31:17;16.35;;;10.00;;
8819;SDS011;4446;50.876;4.736;2023-04-06T06:33:46;15.57;;;10.35;;
8819;SDS011;4446;50.876;4.736;2023-04-06T06:36:15;15.35;;;10.48;;
8819;SDS011;4446;50.876;4.736;2023-04-06T06:38:42;16.52;;;10.32;;
8819;SDS011;4446;50.876;4.736;2023-04-06T06:41:10;15.77;;;10.32;;
8819;SDS011;4446;50.876;4.736;2023-04-06T06:43:37;16.30;;;10.65;;
8819;SDS011;4446;50.876;4.736;2023-04-06T06:46:04;17.58;;;10.73;;
8819;SDS011;4446;50.876;4.736;2023-04-06T06:48:31;17.48;;;10.77;;
8819;SDS011;4446;50.876;4.736;2023-04-06T06:51:00;18.00;;;10.70;;
8819;SDS011;4446;50.876;4.736;2023-04-06T06:53:27;17.67;;;10.15;;
8819;SDS011;4446;50.876;4.736;2023-04-06T06:55:54;15.93;;;10.13;;
8819;SDS011;4446;50.876;4.736;2023-04-06T06:58:21;15.00;;;10.07;;
8819;SDS011;4446;50.876;4.736;2023-04-06T07:00:48;18.23;;;10.77;;
8819;SDS011;4446;50.876;4.736;2023-04-06T07:03:15;13.43;;;9.75;;
8819;SDS011;4446;50.876;4.736;2023-04-06T07:05:45;16.00;;;10.73;;
8819;SDS011;4446;50.876;4.736;2023-04-06T07:08:19;13.95;;;9.77;;
8819;SDS011;4446;50.876;4.736;2023-04-06T07:10:46;15.82;;;10.40;;
8819;SDS011;4446;50.876;4.736;2023-04-06T07:13:13;15.10;;;10.05;;
8819;SDS011;4446;50.876;4.736;2023-04-06T07:15:44;15.90;;;10.48;;
8819;SDS011;4446;50.876;4.736;2023-04-06T07:18:11;15.73;;;10.55;;
8819;SDS011;4446;50.876;4.736;2023-04-06T07:20:38;15.23;;;10.05;;
8819;SDS011;4446;50.876;4.736;2023-04-06T07:23:06;15.65;;;10.77;;
8819;SDS011;4446;50.876;4.736;2023-04-06T07:25:34;13.93;;;9.93;;
8819;SDS011;4446;50.876;4.736;2023-04-06T07:28:02;19.35;;;10.63;;
8819;SDS011;4446;50.876;4.736;2023-04-06T07:30:29;17.85;;;10.68;;
8819;SDS011;4446;50.876;4.736;2023-04-06T07:32:56;17.52;;;11.30;;
8819;SDS011;4446;50.876;4.736;2023-04-06T07:35:24;19.30;;;11.63;;
8819;SDS011;4446;50.876;4.736;2023-04-06T07:37:52;15.60;;;10.65;;
8819;SDS011;4446;50.876;4.736;2023-04-06T07:40:20;17.48;;;11.32;;
8819;SDS011;4446;50.876;4.736;2023-04-06T07:42:49;16.40;;;10.52;;
8819;SDS011;4446;50.876;4.736;2023-04-06T07:45:16;15.90;;;10.93;;
8819;SDS011;4446;50.876;4.736;2023-04-06T07:47:43;17.50;;;11.07;;
8819;SDS011;4446;50.876;4.736;2023-04-06T07:50:10;18.27;;;11.38;;
8819;SDS011;4446;50.876;4.736;2023-04-06T07:52:38;16.88;;;10.60;;
8819;SDS011;4446;50.876;4.736;2023-04-06T07:55:05;16.27;;;10.40;;
8819;SDS011;4446;50.876;4.736;2023-04-06T07:57:33;18.80;;;11.48;;
8819;SDS011;4446;50.876;4.736;2023-04-06T08:00:01;20.48;;;11.23;;
8819;SDS011;4446;50.876;4.736;2023-04-06T08:02:29;19.08;;;11.45;;
8819;SDS011;4446;50.876;4.736;2023-04-06T08:04:56;20.42;;;11.32;;
8819;SDS011;4446;50.876;4.736;2023-04-06T08:07:23;16.50;;;11.32;;
8819;SDS011;4446;50.876;4.736;2023-04-06T08:09:51;20.42;;;11.52;;
8819;SDS011;4446;50.876;4.736;2023-04-06T08:12:18;22.17;;;12.38;;
8819;SDS011;4446;50.876;4.736;2023-04-06T08:14:45;17.80;;;11.90;;
8819;SDS011;4446;50.876;4.736;2023-04-06T08:17:13;20.30;;;11.13;;
8819;SDS011;4446;50.876;4.736;2023-04-06T08:19:41;20.73;;;11.77;;
8819;SDS011;4446;50.876;4.736;2023-04-06T08:22:09;16.15;;;10.95;;
8819;SDS011;4446;50.876;4.736;2023-04-06T08:24:36;17.83;;;11.80;;
8819;SDS011;4446;50.876;4.736;2023-04-06T08:27:03;19.60;;;11.95;;
8819;SDS011;4446;50.876;4.736;2023-04-06T08:29:30;16.83;;;11.25;;
8819;SDS011;4446;50.876;4.736;2023-04-06T08:31:57;18.63;;;11.52;;
8819;SDS011;4446;50.876;4.736;2023-04-06T08:34:25;16.40;;;10.98;;
8819;SDS011;4446;50.876;4.736;2023-04-06T08:36:52;16.05;;;10.20;;
8819;SDS011;4446;50.876;4.736;2023-04-06T08:39:19;16.83;;;10.98;;
8819;SDS011;4446;50.876;4.736;2023-04-06T08:41:50;16.45;;;10.20;;
8819;SDS011;4446;50.876;4.736;2023-04-06T08:44:22;15.00;;;10.25;;
8819;SDS011;4446;50.876;4.736;2023-04-06T08:46:49;14.35;;;9.82;;
8819;SDS011;4446;50.876;4.736;2023-04-06T08:49:17;15.32;;;10.20;;
8819;SDS011;4446;50.876;4.736;2023-04-06T08:51:46;15.35;;;10.18;;
8819;SDS011;4446;50.876;4.736;2023-04-06T08:54:13;15.15;;;10.07;;
8819;SDS011;4446;50.876;4.736;2023-04-06T08:56:40;14.80;;;10.32;;
8819;SDS011;4446;50.876;4.736;2023-04-06T08:59:09;13.82;;;10.15;;
8819;SDS011;4446;50.876;4.736;2023-04-06T09:01:38;16.08;;;10.43;;
8819;SDS011;4446;50.876;4.736;2023-04-06T09:04:07;14.30;;;10.02;;
8819;SDS011;4446;50.876;4.736;2023-04-06T09:06:36;16.17;;;11.05;;
8819;SDS011;4446;50.876;4.736;2023-04-06T09:09:05;14.02;;;9.68;;
8819;SDS011;4446;50.876;4.736;2023-04-06T09:11:41;16.73;;;11.00;;
8819;SDS011;4446;50.876;4.736;2023-04-06T09:14:09;14.45;;;9.90;;
8819;SDS011;4446;50.876;4.736;2023-04-06T09:16:40;15.43;;;10.55;;
8819;SDS011;4446;50.876;4.736;2023-04-06T09:19:08;16.83;;;10.93;;
8819;SDS011;4446;50.876;4.736;2023-04-06T09:21:35;15.32;;;10.68;;
8819;SDS011;4446;50.876;4.736;2023-04-06T09:24:03;16.98;;;10.50;;
8819;SDS011;4446;50.876;4.736;2023-04-06T09:26:43;16.02;;;10.90;;
8819;SDS011;4446;50.876;4.736;2023-04-06T09:29:21;16.02;;;10.45;;
8819;SDS011;4446;50.876;4.736;2023-04-06T09:31:49;16.25;;;11.23;;
8819;SDS011;4446;50.876;4.736;2023-04-06T09:34:20;17.00;;;11.02;;
8819;SDS011;4446;50.876;4.736;2023-04-06T09:36:49;17.80;;;11.38;;
8819;SDS011;4446;50.876;4.736;2023-04-06T09:39:19;16.55;;;11.82;;
8819;SDS011;4446;50.876;4.736;2023-04-06T09:41:49;17.30;;;11.40;;
8819;SDS011;4446;50.876;4.736;2023-04-06T09:44:17;17.88;;;11.60;;
8819;SDS011;4446;50.876;4.736;2023-04-06T09:46:45;19.58;;;12.40;;
8819;SDS011;4446;50.876;4.736;2023-04-06T09:49:13;18.10;;;11.77;;
8819;SDS011;4446;50.876;4.736;2023-04-06T09:51:40;20.02;;;12.85;;
8819;SDS011;4446;50.876;4.736;2023-04-06T09:54:11;15.95;;;11.70;;
8819;SDS011;4446;50.876;4.736;2023-04-06T09:56:47;17.05;;;11.60;;
8819;SDS011;4446;50.876;4.736;2023-04-06T09:59:24;18.25;;;11.98;;
8819;SDS011;4446;50.876;4.736;2023-04-06T10:01:58;17.00;;;11.93;;
8819;SDS011;4446;50.876;4.736;2023-04-06T10:04:28;17.83;;;12.40;;
8819;SDS011;4446;50.876;4.736;2023-04-06T10:07:03;17.17;;;11.88;;
8819;SDS011;4446;50.876;4.736;2023-04-06T10:09:31;18.48;;;12.18;;
8819;SDS011;4446;50.876;4.736;2023-04-06T10:12:04;17.83;;;11.30;;
8819;SDS011;4446;50.876;4.736;2023-04-06T10:14:32;14.73;;;10.45;;
8819;SDS011;4446;50.876;4.736;2023-04-06T10:17:02;15.07;;;10.57;;
8819;SDS011;4446;50.876;4.736;2023-04-06T10:19:32;15.65;;;10.80;;
8819;SDS011;4446;50.876;4.736;2023-04-06T10:22:06;14.88;;;11.15;;
8819;SDS011;4446;50.876;4.736;2023-04-06T10:24:36;14.45;;;10.05;;
8819;SDS011;4446;50.876;4.736;2023-04-06T10:27:06;17.58;;;10.60;;
8819;SDS011;4446;50.876;4.736;2023-04-06T10:29:41;14.35;;;10.45;;
8819;SDS011;4446;50.876;4.736;2023-04-06T10:32:10;13.68;;;9.73;;
8819;SDS011;4446;50.876;4.736;2023-04-06T10:34:37;16.27;;;9.95;;
8819;SDS011;4446;50.876;4.736;2023-04-06T10:37:11;12.95;;;9.65;;
8819;SDS011;4446;50.876;4.736;2023-04-06T10:39:46;16.38;;;9.75;;
8819;SDS011;4446;50.876;4.736;2023-04-06T10:42:15;14.43;;;9.82;;
8819;SDS011;4446;50.876;4.736;2023-04-06T10:44:42;13.55;;;9.65;;
8819;SDS011;4446;50.876;4.736;2023-04-06T10:47:15;14.65;;;10.60;;
8819;SDS011;4446;50.876;4.736;2023-04-06T10:49:43;16.17;;;11.05;;
8819;SDS011;4446;50.876;4.736;2023-04-06T10:52:10;16.23;;;10.25;;
8819;SDS011;4446;50.876;4.736;2023-04-06T10:54:40;17.23;;;11.43;;
8819;SDS011;4446;50.876;4.736;2023-04-06T10:57:09;14.40;;;10.45;;
8819;SDS011;4446;50.876;4.736;2023-04-06T10:59:37;15.35;;;10.82;;
8819;SDS011;4446;50.876;4.736;2023-04-06T11:02:08;15.07;;;10.95;;
8819;SDS011;4446;50.876;4.736;2023-04-06T11:04:53;14.13;;;10.23;;
8819;SDS011;4446;50.876;4.736;2023-04-06T11:07:22;15.63;;;10.55;;
8819;SDS011;4446;50.876;4.736;2023-04-06T11:09:50;16.00;;;10.73;;
8819;SDS011;4446;50.876;4.736;2023-04-06T11:12:20;16.55;;;11.13;;
8819;SDS011;4446;50.876;4.736;2023-04-06T11:14:56;14.57;;;10.85;;
8819;SDS011;4446;50.876;4.736;2023-04-06T11:17:29;16.73;;;11.63;;
8819;SDS011;4446;50.876;4.736;2023-04-06T11:19:56;14.85;;;10.98;;
8819;SDS011;4446;50.876;4.736;2023-04-06T11:22:24;14.63;;;10.35;;
8819;SDS011;4446;50.876;4.736;2023-04-06T11:24:51;15.40;;;10.27;;
8819;SDS011;4446;50.876;4.736;2023-04-06T11:27:19;16.92;;;11.18;;
8819;SDS011;4446;50.876;4.736;2023-04-06T11:29:46;15.93;;;10.68;;
8819;SDS011;4446;50.876;4.736;2023-04-06T11:32:21;17.38;;;10.48;;
8819;SDS011;4446;50.876;4.736;2023-04-06T11:34:49;15.82;;;10.00;;
8819;SDS011;4446;50.876;4.736;2023-04-06T11:37:16;14.63;;;10.65;;
8819;SDS011;4446;50.876;4.736;2023-04-06T11:39:47;14.15;;;10.27;;
8819;SDS011;4446;50.876;4.736;2023-04-06T11:42:22;14.60;;;9.93;;
8819;SDS011;4446;50.876;4.736;2023-04-06T11:44:50;13.38;;;9.63;;
8819;SDS011;4446;50.876;4.736;2023-04-06T11:47:18;13.10;;;10.23;;
8819;SDS011;4446;50.876;4.736;2023-04-06T11:49:48;14.68;;;10.43;;
8819;SDS011;4446;50.876;4.736;2023-04-06T11:52:16;14.70;;;9.52;;
8819;SDS011;4446;50.876;4.736;2023-04-06T11:54:44;13.50;;;10.07;;
8819;SDS011;4446;50.876;4.736;2023-04-06T11:57:12;14.32;;;10.00;;
8819;SDS011;4446;50.876;4.736;2023-04-06T11:59:39;12.90;;;10.00;;
8819;SDS011;4446;50.876;4.736;2023-04-06T12:02:06;12.88;;;10.60;;
8819;SDS011;4446;50.876;4.736;2023-04-06T12:04:33;12.82;;;9.85;;
8819;SDS011;4446;50.876;4.736;2023-04-06T12:07:01;16.27;;;10.63;;
8819;SDS011;4446;50.876;4.736;2023-04-06T12:09:29;14.43;;;10.25;;
8819;SDS011;4446;50.876;4.736;2023-04-06T12:11:56;14.45;;;10.02;;
8819;SDS011;4446;50.876;4.736;2023-04-06T12:14:23;14.00;;;10.02;;
8819;SDS011;4446;50.876;4.736;2023-04-06T12:16:50;13.65;;;10.23;;
8819;SDS011;4446;50.876;4.736;2023-04-06T12:19:17;12.70;;;9.52;;
8819;SDS011;4446;50.876;4.736;2023-04-06T12:21:44;13.52;;;10.07;;
8819;SDS011;4446;50.876;4.736;2023-04-06T12:24:13;12.82;;;9.65;;
8819;SDS011;4446;50.876;4.736;2023-04-06T12:26:40;12.70;;;9.68;;
8819;SDS011;4446;50.876;4.736;2023-04-06T12:29:07;13.88;;;10.02;;
8819;SDS011;4446;50.876;4.736;2023-04-06T12:31:34;13.00;;;9.40;;
8819;SDS011;4446;50.876;4.736;2023-04-06T12:34:03;12.25;;;9.48;;
8819;SDS011;4446;50.876;4.736;2023-04-06T12:36:31;15.10;;;10.25;;
8819;SDS011;4446;50.876;4.736;2023-04-06T12:38:58;11.13;;;9.48;;
8819;SDS011;4446;50.876;4.736;2023-04-06T12:41:27;13.27;;;9.88;;
8819;SDS011;4446;50.876;4.736;2023-04-06T12:43:54;12.93;;;9.80;;
8819;SDS011;4446;50.876;4.736;2023-04-06T12:46:22;10.52;;;9.02;;
8819;SDS011;4446;50.876;4.736;2023-04-06T12:48:50;14.13;;;9.98;;
8819;SDS011;4446;50.876;4.736;2023-04-06T12:51:20;13.95;;;9.82;;
8819;SDS011;4446;50.876;4.736;2023-04-06T12:53:47;12.00;;;9.25;;
8819;SDS011;4446;50.876;4.736;2023-04-06T12:56:15;14.07;;;9.32;;
8819;SDS011;4446;50.876;4.736;2023-04-06T12:58:45;11.10;;;9.07;;
8819;SDS011;4446;50.876;4.736;2023-04-06T13:01:12;12.52;;;9.70;;
8819;SDS011;4446;50.876;4.736;2023-04-06T13:03:40;11.88;;;9.77;;
8819;SDS011;4446;50.876;4.736;2023-04-06T13:06:07;13.23;;;10.30;;
8819;SDS011;4446;50.876;4.736;2023-04-06T13:08:35;14.70;;;10.63;;
8819;SDS011;4446;50.876;4.736;2023-04-06T13:11:03;14.00;;;10.20;;
8819;SDS011;4446;50.876;4.736;2023-04-06T13:13:33;14.90;;;10.32;;
8819;SDS011;4446;50.876;4.736;2023-04-06T13:16:01;13.57;;;9.85;;
8819;SDS011;4446;50.876;4.736;2023-04-06T13:18:30;11.80;;;9.68;;
8819;SDS011;4446;50.876;4.736;2023-04-06T13:20:57;13.20;;;10.13;;
8819;SDS011;4446;50.876;4.736;2023-04-06T13:23:25;13.48;;;10.48;;
8819;SDS011;4446;50.876;4.736;2023-04-06T13:25:56;14.15;;;10.27;;
8819;SDS011;4446;50.876;4.736;2023-04-06T13:28:25;15.15;;;10.98;;
8819;SDS011;4446;50.876;4.736;2023-04-06T13:30:53;15.85;;;11.38;;
8819;SDS011;4446;50.876;4.736;2023-04-06T13:33:22;14.02;;;11.07;;
8819;SDS011;4446;50.876;4.736;2023-04-06T13:35:49;16.17;;;11.10;;
8819;SDS011;4446;50.876;4.736;2023-04-06T13:38:17;14.52;;;11.02;;
8819;SDS011;4446;50.876;4.736;2023-04-06T13:40:44;14.32;;;10.98;;
8819;SDS011;4446;50.876;4.736;2023-04-06T13:43:11;16.73;;;11.88;;
8819;SDS011;4446;50.876;4.736;2023-04-06T13:45:38;17.45;;;12.27;;
8819;SDS011;4446;50.876;4.736;2023-04-06T13:48:05;17.48;;;12.30;;
8819;SDS011;4446;50.876;4.736;2023-04-06T13:50:33;15.82;;;12.38;;
8819;SDS011;4446;50.876;4.736;2023-04-06T13:53:00;18.17;;;13.20;;
8819;SDS011;4446;50.876;4.736;2023-04-06T13:55:27;19.35;;;13.23;;
8819;SDS011;4446;50.876;4.736;2023-04-06T13:57:56;16.73;;;12.57;;
8819;SDS011;4446;50.876;4.736;2023-04-06T14:00:23;17.25;;;12.73;;
8819;SDS011;4446;50.876;4.736;2023-04-06T14:02:50;18.92;;;13.38;;
8819;SDS011;4446;50.876;4.736;2023-04-06T14:05:19;18.95;;;13.10;;
8819;SDS011;4446;50.876;4.736;2023-04-06T14:07:47;17.70;;;12.95;;
8819;SDS011;4446;50.876;4.736;2023-04-06T14:10:14;18.55;;;12.70;;
8819;SDS011;4446;50.876;4.736;2023-04-06T14:12:41;18.02;;;12.80;;
8819;SDS011;4446;50.876;4.736;2023-04-06T14:15:10;16.20;;;12.75;;
8819;SDS011;4446;50.876;4.736;2023-04-06T14:17:37;15.80;;;12.95;;
8819;SDS011;4446;50.876;4.736;2023-04-06T14:20:05;16.63;;;12.50;;
8819;SDS011;4446;50.876;4.736;2023-04-06T14:22:33;15.35;;;11.90;;
8819;SDS011;4446;50.876;4.736;2023-04-06T14:25:01;16.27;;;12.82;;
8819;SDS011;4446;50.876;4.736;2023-04-06T14:27:28;19.80;;;13.60;;
8819;SDS011;4446;50.876;4.736;2023-04-06T14:29:55;16.73;;;12.40;;
8819;SDS011;4446;50.876;4.736;2023-04-06T14:32:22;18.00;;;12.90;;
8819;SDS011;4446;50.876;4.736;2023-04-06T14:34:49;16.25;;;12.45;;
8819;SDS011;4446;50.876;4.736;2023-04-06T14:37:16;16.08;;;12.52;;
8819;SDS011;4446;50.876;4.736;2023-04-06T14:39:43;16.67;;;12.80;;
8819;SDS011;4446;50.876;4.736;2023-04-06T14:42:12;17.95;;;12.80;;
8819;SDS011;4446;50.876;4.736;2023-04-06T14:44:39;15.73;;;12.35;;
8819;SDS011;4446;50.876;4.736;2023-04-06T14:47:08;15.68;;;12.45;;
8819;SDS011;4446;50.876;4.736;2023-04-06T14:49:35;14.88;;;12.35;;
8819;SDS011;4446;50.876;4.736;2023-04-06T14:52:02;16.75;;;13.43;;
8819;SDS011;4446;50.876;4.736;2023-04-06T14:54:29;17.15;;;12.70;;